sensor_id;sensor_type;location;lat;lon;timestamp;pressure;altitude;pressure_sealevel;temperature;humidity
15914;BME280;8055;51.930;8.840;2023-07-30T00:01:32;74626.78;;;-145.72;100.00
15914;BME280;8055;51.930;8.840;2023-07-30T00:03:58;74620.56;;;-145.72;100.00
15914;BME280;8055;51.930;8.840;2023-07-30T00:06:23;74620.56;;;-145.72;100.00
15914;BME280;8055;51.930;8.840;2023-07-30T00:08:49;74626.78;;;-145.72;100.00
15914;BME280;8055;51.930;8.840;2023-07-30T00:11:14;74630.91;;;-145.72;100.00
15914;BME280;8055;51.930;8.840;2023-07-30T00:13:40;74632.97;;;-145.72;100.00
15914;BME280;8055;51.930;8.840;2023-07-30T00:16:05;74635.03;;;-145.72;100.00
15914;BME280;8055;51.930;8.840;2023-07-30T00:18:30;74637.13;;;-145.72;100.00
15914;BME280;8055;51.930;8.840;2023-07-30T00:20:56;74645.38;;;-145.72;100.00
15914;BME280;8055;51.930;8.840;2023-07-30T00:23:21;74651.59;;;-145.72;100.00
15914;BME280;8055;51.930;8.840;2023-07-30T00:25:46;74647.47;;;-145.72;100.00
15914;BME280;8055;51.930;8.840;2023-07-30T00:28:12;74657.81;;;-145.72;100.00
15914;BME280;8055;51.930;8.840;2023-07-30T00:30:37;74666.06;;;-145.72;100.00
15914;BME280;8055;51.930;8.840;2023-07-30T00:33:02;74661.94;;;-145.72;100.00
15914;BME280;8055;51.930;8.840;2023-07-30T00:35:28;74664.00;;;-145.72;100.00
15914;BME280;8055;51.930;8.840;2023-07-30T00:37:53;74668.16;;;-145.72;100.00
15914;BME280;8055;51.930;8.840;2023-07-30T00:40:18;74664.00;;;-145.72;100.00
15914;BME280;8055;51.930;8.840;2023-07-30T00:42:44;74668.16;;;-145.72;100.00
15914;BME280;8055;51.930;8.840;2023-07-30T00:45:10;74668.16;;;-145.72;100.00
15914;BME280;8055;51.930;8.840;2023-07-30T00:47:37;74661.94;;;-145.72;100.00
15914;BME280;8055;51.930;8.840;2023-07-30T00:50:03;74664.00;;;-145.72;100.00
15914;BME280;8055;51.930;8.840;2023-07-30T00:52:29;74672.28;;;-145.72;100.00
15914;BME280;8055;51.930;8.840;2023-07-30T00:54:57;74678.50;;;-145.72;100.00
15914;BME280;8055;51.930;8.840;2023-07-30T00:57:22;74678.50;;;-145.72;100.00
15914;BME280;8055;51.930;8.840;2023-07-30T00:59:49;74690.91;;;-145.72;100.00
15914;BME280;8055;51.930;8.840;2023-07-30T01:02:14;74692.97;;;-145.72;100.00
15914;BME280;8055;51.930;8.840;2023-07-30T01:04:40;74699.19;;;-145.72;100.00
15914;BME280;8055;51.930;8.840;2023-07-30T01:07:06;74703.31;;;-145.72;100.00
15914;BME280;8055;51.930;8.840;2023-07-30T01:09:32;74711.59;;;-145.72;100.00
15914;BME280;8055;51.930;8.840;2023-07-30T01:11:59;74711.59;;;-145.72;100.00
15914;BME280;8055;51.930;8.840;2023-07-30T01:14:25;74717.78;;;-145.72;100.00
15914;BME280;8055;51.930;8.840;2023-07-30T01:16:54;74721.94;;;-145.72;100.00
15914;BME280;8055;51.930;8.840;2023-07-30T01:19:19;74724.00;;;-145.72;100.00
15914;BME280;8055;51.930;8.840;2023-07-30T01:21:44;74732.28;;;-145.72;100.00
15914;BME280;8055;51.930;8.840;2023-07-30T01:24:10;74738.47;;;-145.72;100.00
15914;BME280;8055;51.930;8.840;2023-07-30T01:29:13;74740.56;;;-145.72;100.00
15914;BME280;8055;51.930;8.840;2023-07-30T01:31:40;74752.97;;;-145.72;100.00
15914;BME280;8055;51.930;8.840;2023-07-30T01:34:07;74755.03;;;-145.72;100.00
15914;BME280;8055;51.930;8.840;2023-07-30T01:36:34;74767.44;;;-145.72;100.00
15914;BME280;8055;51.930;8.840;2023-07-30T01:39:01;74757.09;;;-145.72;100.00
15914;BME280;8055;51.930;8.840;2023-07-30T01:41:27;74777.78;;;-145.72;100.00
15914;BME280;8055;51.930;8.840;2023-07-30T01:43:53;74771.56;;;-145.72;100.00
15914;BME280;8055;51.930;8.840;2023-07-30T01:46:19;74781.91;;;-145.72;100.00
15914;BME280;8055;51.930;8.840;2023-07-30T01:48:44;74777.78;;;-145.72;100.00
15914;BME280;8055;51.930;8.840;2023-07-30T01:51:10;74784.00;;;-145.72;100.00
15914;BME280;8055;51.930;8.840;2023-07-30T01:53:35;74784.00;;;-145.72;100.00
15914;BME280;8055;51.930;8.840;2023-07-30T01:56:00;74788.13;;;-145.72;100.00
15914;BME280;8055;51.930;8.840;2023-07-30T01:58:26;74798.47;;;-145.72;100.00
15914;BME280;8055;51.930;8.840;2023-07-30T02:00:51;74796.41;;;-145.72;100.00
15914;BME280;8055;51.930;8.840;2023-07-30T02:03:16;74798.47;;;-145.72;100.00
15914;BME280;8055;51.930;8.840;2023-07-30T02:05:42;74798.47;;;-145.72;100.00
15914;BME280;8055;51.930;8.840;2023-07-30T02:08:07;74802.63;;;-145.72;100.00
15914;BME280;8055;51.930;8.840;2023-07-30T02:10:32;74802.63;;;-145.72;100.00
15914;BME280;8055;51.930;8.840;2023-07-30T02:12:59;74802.63;;;-145.72;100.00
15914;BME280;8055;51.930;8.840;2023-07-30T02:15:24;74802.63;;;-145.72;100.00
15914;BME280;8055;51.930;8.840;2023-07-30T02:17:49;74808.81;;;-145.72;100.00
15914;BME280;8055;51.930;8.840;2023-07-30T02:20:15;74806.75;;;-145.72;100.00
15914;BME280;8055;51.930;8.840;2023-07-30T02:22:40;74804.69;;;-145.72;100.00
15914;BME280;8055;51.930;8.840;2023-07-30T02:25:06;74810.88;;;-145.72;100.00
15914;BME280;8055;51.930;8.840;2023-07-30T02:27:31;74802.63;;;-145.72;100.00
15914;BME280;8055;51.930;8.840;2023-07-30T02:29:57;74806.75;;;-145.72;100.00
15914;BME280;8055;51.930;8.840;2023-07-30T02:32:22;74796.41;;;-145.72;100.00
15914;BME280;8055;51.930;8.840;2023-07-30T02:34:47;74800.53;;;-145.72;100.00
15914;BME280;8055;51.930;8.840;2023-07-30T02:37:13;74802.63;;;-145.72;100.00
15914;BME280;8055;51.930;8.840;2023-07-30T02:39:38;74798.47;;;-145.72;100.00
15914;BME280;8055;51.930;8.840;2023-07-30T02:42:04;74794.34;;;-145.72;100.00
15914;BME280;8055;51.930;8.840;2023-07-30T02:44:29;74790.19;;;-145.72;100.00
15914;BME280;8055;51.930;8.840;2023-07-30T02:46:54;74790.19;;;-145.72;100.00
15914;BME280;8055;51.930;8.840;2023-07-30T02:49:20;74777.78;;;-145.72;100.00
15914;BME280;8055;51.930;8.840;2023-07-30T02:51:45;74779.84;;;-145.72;100.00
15914;BME280;8055;51.930;8.840;2023-07-30T02:54:14;74784.00;;;-145.72;100.00
15914;BME280;8055;51.930;8.840;2023-07-30T02:56:41;74800.53;;;-145.72;100.00
15914;BME280;8055;51.930;8.840;2023-07-30T02:59:06;74806.75;;;-145.72;100.00
15914;BME280;8055;51.930;8.840;2023-07-30T03:01:31;74808.81;;;-145.72;100.00
15914;BME280;8055;51.930;8.840;2023-07-30T03:03:57;74808.81;;;-145.72;100.00
15914;BME280;8055;51.930;8.840;2023-07-30T03:06:22;74815.03;;;-145.72;100.00
15914;BME280;8055;51.930;8.840;2023-07-30T03:08:48;74821.22;;;-145.72;100.00
15914;BME280;8055;51.930;8.840;2023-07-30T03:11:13;74833.63;;;-145.72;100.00
15914;BME280;8055;51.930;8.840;2023-07-30T03:13:39;74835.72;;;-145.72;100.00
15914;BME280;8055;51.930;8.840;2023-07-30T03:16:04;74835.72;;;-145.72;100.00
15914;BME280;8055;51.930;8.840;2023-07-30T03:18:29;74846.06;;;-145.72;100.00
15914;BME280;8055;51.930;8.840;2023-07-30T03:21:01;74852.25;;;-145.72;100.00
15914;BME280;8055;51.930;8.840;2023-07-30T03:23:27;74860.53;;;-145.72;100.00
15914;BME280;8055;51.930;8.840;2023-07-30T03:25:53;74870.88;;;-145.72;100.00
15914;BME280;8055;51.930;8.840;2023-07-30T03:28:18;74875.00;;;-145.72;100.00
15914;BME280;8055;51.930;8.840;2023-07-30T03:30:43;74877.09;;;-145.72;100.00
15914;BME280;8055;51.930;8.840;2023-07-30T03:33:09;74887.44;;;-145.72;100.00
15914;BME280;8055;51.930;8.840;2023-07-30T03:35:34;74893.63;;;-145.72;100.00
15914;BME280;8055;51.930;8.840;2023-07-30T03:37:59;74901.91;;;-145.72;100.00
15914;BME280;8055;51.930;8.840;2023-07-30T03:40:25;74906.03;;;-145.72;100.00
15914;BME280;8055;51.930;8.840;2023-07-30T03:42:51;74914.31;;;-145.72;100.00
15914;BME280;8055;51.930;8.840;2023-07-30T03:45:16;74914.31;;;-145.72;100.00
15914;BME280;8055;51.930;8.840;2023-07-30T03:47:42;74918.47;;;-145.72;100.00
15914;BME280;8055;51.930;8.840;2023-07-30T03:50:08;74930.88;;;-145.72;100.00
15914;BME280;8055;51.930;8.840;2023-07-30T03:52:33;74928.81;;;-145.72;100.00
15914;BME280;8055;51.930;8.840;2023-07-30T03:54:58;74924.66;;;-145.72;100.00
15914;BME280;8055;51.930;8.840;2023-07-30T03:57:24;74939.16;;;-145.72;100.00
15914;BME280;8055;51.930;8.840;2023-07-30T03:59:49;74939.16;;;-145.72;100.00
15914;BME280;8055;51.930;8.840;2023-07-30T04:02:15;74937.06;;;-145.72;100.00
15914;BME280;8055;51.930;8.840;2023-07-30T04:04:42;74949.50;;;-145.72;100.00
15914;BME280;8055;51.930;8.840;2023-07-30T04:07:10;74951.56;;;-145.72;100.00
15914;BME280;8055;51.930;8.840;2023-07-30T04:09:35;74955.69;;;-145.72;100.00
15914;BME280;8055;51.930;8.840;2023-07-30T04:12:00;74957.78;;;-145.72;100.00
15914;BME280;8055;51.930;8.840;2023-07-30T04:14:26;74963.97;;;-145.72;100.00
15914;BME280;8055;51.930;8.840;2023-07-30T04:16:51;74968.13;;;-145.72;100.00
15914;BME280;8055;51.930;8.840;2023-07-30T04:19:16;74966.03;;;-145.72;100.00
15914;BME280;8055;51.930;8.840;2023-07-30T04:21:41;74968.13;;;-145.72;100.00
15914;BME280;8055;51.930;8.840;2023-07-30T04:24:07;74970.19;;;-145.72;100.00
15914;BME280;8055;51.930;8.840;2023-07-30T04:26:32;74976.38;;;-145.72;100.00
15914;BME280;8055;51.930;8.840;2023-07-30T04:28:57;74970.19;;;-145.72;100.00
15914;BME280;8055;51.930;8.840;2023-07-30T04:31:23;74972.25;;;-145.72;100.00
15914;BME280;8055;51.930;8.840;2023-07-30T04:33:48;74982.59;;;-145.72;100.00
15914;BME280;8055;51.930;8.840;2023-07-30T04:36:13;74974.31;;;-145.72;100.00
15914;BME280;8055;51.930;8.840;2023-07-30T04:38:39;74978.47;;;-145.72;100.00
15914;BME280;8055;51.930;8.840;2023-07-30T04:41:04;74968.13;;;-145.72;100.00
15914;BME280;8055;51.930;8.840;2023-07-30T04:43:30;74976.38;;;-145.72;100.00
15914;BME280;8055;51.930;8.840;2023-07-30T04:45:55;74972.25;;;-145.72;100.00
15914;BME280;8055;51.930;8.840;2023-07-30T04:48:20;74972.25;;;-145.72;100.00
15914;BME280;8055;51.930;8.840;2023-07-30T04:50:46;74980.53;;;-145.72;100.00
15914;BME280;8055;51.930;8.840;2023-07-30T04:53:11;74976.38;;;-145.72;100.00
15914;BME280;8055;51.930;8.840;2023-07-30T04:55:36;74968.13;;;-145.72;100.00
15914;BME280;8055;51.930;8.840;2023-07-30T04:58:02;74963.97;;;-145.72;100.00
15914;BME280;8055;51.930;8.840;2023-07-30T05:00:28;74959.84;;;-145.72;100.00
15914;BME280;8055;51.930;8.840;2023-07-30T05:02:54;74963.97;;;-145.72;100.00
15914;BME280;8055;51.930;8.840;2023-07-30T05:05:19;74966.03;;;-145.72;100.00
15914;BME280;8055;51.930;8.840;2023-07-30T05:07:44;74961.91;;;-145.72;100.00
15914;BME280;8055;51.930;8.840;2023-07-30T05:10:10;74959.84;;;-145.72;100.00
15914;BME280;8055;51.930;8.840;2023-07-30T05:12:36;74953.63;;;-145.72;100.00
15914;BME280;8055;51.930;8.840;2023-07-30T05:15:02;74951.56;;;-145.72;100.00
15914;BME280;8055;51.930;8.840;2023-07-30T05:17:28;74941.22;;;-145.72;100.00
15914;BME280;8055;51.930;8.840;2023-07-30T05:19:54;74926.72;;;-145.72;100.00
15914;BME280;8055;51.930;8.840;2023-07-30T05:22:19;74922.59;;;-145.72;100.00
15914;BME280;8055;51.930;8.840;2023-07-30T05:24:44;74935.00;;;-145.72;100.00
15914;BME280;8055;51.930;8.840;2023-07-30T05:27:10;74922.59;;;-145.72;100.00
15914;BME280;8055;51.930;8.840;2023-07-30T05:29:35;74918.47;;;-145.72;100.00
15914;BME280;8055;51.930;8.840;2023-07-30T05:32:00;74916.38;;;-145.72;100.00
15914;BME280;8055;51.930;8.840;2023-07-30T05:34:26;74922.59;;;-145.72;100.00
15914;BME280;8055;51.930;8.840;2023-07-30T05:36:51;74914.31;;;-145.72;100.00
15914;BME280;8055;51.930;8.840;2023-07-30T05:39:16;74910.19;;;-145.72;100.00
15914;BME280;8055;51.930;8.840;2023-07-30T05:41:42;74899.84;;;-145.72;100.00
15914;BME280;8055;51.930;8.840;2023-07-30T05:44:07;74895.69;;;-145.72;100.00
15914;BME280;8055;51.930;8.840;2023-07-30T05:46:32;74895.69;;;-145.72;100.00
15914;BME280;8055;51.930;8.840;2023-07-30T05:48:58;74908.13;;;-145.72;100.00
15914;BME280;8055;51.930;8.840;2023-07-30T05:51:23;74906.03;;;-145.72;100.00
15914;BME280;8055;51.930;8.840;2023-07-30T05:53:49;74901.91;;;-145.72;100.00
15914;BME280;8055;51.930;8.840;2023-07-30T05:56:14;74897.78;;;-145.72;100.00
15914;BME280;8055;51.930;8.840;2023-07-30T05:58:39;74889.50;;;-145.72;100.00
15914;BME280;8055;51.930;8.840;2023-07-30T06:01:05;74881.22;;;-145.72;100.00
15914;BME280;8055;51.930;8.840;2023-07-30T06:03:30;74881.22;;;-145.72;100.00
15914;BME280;8055;51.930;8.840;2023-07-30T06:05:55;74872.94;;;-145.72;100.00
15914;BME280;8055;51.930;8.840;2023-07-30T06:08:21;74858.47;;;-145.72;100.00
15914;BME280;8055;51.930;8.840;2023-07-30T06:10:46;74862.59;;;-145.72;100.00
15914;BME280;8055;51.930;8.840;2023-07-30T06:13:12;74854.31;;;-145.72;100.00
15914;BME280;8055;51.930;8.840;2023-07-30T06:15:37;74854.31;;;-145.72;100.00
15914;BME280;8055;51.930;8.840;2023-07-30T06:18:03;74852.25;;;-145.72;100.00
15914;BME280;8055;51.930;8.840;2023-07-30T06:20:29;74850.19;;;-145.72;100.00
15914;BME280;8055;51.930;8.840;2023-07-30T06:22:54;74846.06;;;-145.72;100.00
15914;BME280;8055;51.930;8.840;2023-07-30T06:25:19;74852.25;;;-145.72;100.00
15914;BME280;8055;51.930;8.840;2023-07-30T06:27:45;74846.06;;;-145.72;100.00
15914;BME280;8055;51.930;8.840;2023-07-30T06:30:11;74843.97;;;-145.72;100.00
15914;BME280;8055;51.930;8.840;2023-07-30T06:32:36;74848.13;;;-145.72;100.00
15914;BME280;8055;51.930;8.840;2023-07-30T06:35:02;74837.78;;;-145.72;100.00
15914;BME280;8055;51.930;8.840;2023-07-30T06:37:28;74819.16;;;-145.72;100.00
15914;BME280;8055;51.930;8.840;2023-07-30T06:39:53;74812.94;;;-145.72;100.00
15914;BME280;8055;51.930;8.840;2023-07-30T06:42:19;74817.09;;;-145.72;100.00
15914;BME280;8055;51.930;8.840;2023-07-30T06:44:44;74810.88;;;-145.72;100.00
15914;BME280;8055;51.930;8.840;2023-07-30T06:47:09;74802.63;;;-145.72;100.00
15914;BME280;8055;51.930;8.840;2023-07-30T06:49:35;74802.63;;;-145.72;100.00
15914;BME280;8055;51.930;8.840;2023-07-30T06:52:00;74806.75;;;-145.72;100.00
15914;BME280;8055;51.930;8.840;2023-07-30T06:54:28;74808.81;;;-145.72;100.00
15914;BME280;8055;51.930;8.840;2023-07-30T06:56:53;74806.75;;;-145.72;100.00
15914;BME280;8055;51.930;8.840;2023-07-30T06:59:19;74806.75;;;-145.72;100.00
15914;BME280;8055;51.930;8.840;2023-07-30T07:01:44;74798.47;;;-145.72;100.00
15914;BME280;8055;51.930;8.840;2023-07-30T07:04:09;74798.47;;;-145.72;100.00
15914;BME280;8055;51.930;8.840;2023-07-30T07:06:35;74781.91;;;-145.72;100.00
15914;BME280;8055;51.930;8.840;2023-07-30T07:09:00;74777.78;;;-145.72;100.00
15914;BME280;8055;51.930;8.840;2023-07-30T07:11:26;74771.56;;;-145.72;100.00
15914;BME280;8055;51.930;8.840;2023-07-30T07:13:51;74777.78;;;-145.72;100.00
15914;BME280;8055;51.930;8.840;2023-07-30T07:16:16;74775.72;;;-145.72;100.00
15914;BME280;8055;51.930;8.840;2023-07-30T07:18:42;74771.56;;;-145.72;100.00
15914;BME280;8055;51.930;8.840;2023-07-30T07:21:07;74773.66;;;-145.72;99.98
15914;BME280;8055;51.930;8.840;2023-07-30T07:23:33;74788.13;;;-145.72;100.00
15914;BME280;8055;51.930;8.840;2023-07-30T07:25:58;74788.13;;;-145.72;99.85
15914;BME280;8055;51.930;8.840;2023-07-30T07:28:24;74802.63;;;-145.72;100.00
15914;BME280;8055;51.930;8.840;2023-07-30T07:30:50;74798.47;;;-145.72;100.00
15914;BME280;8055;51.930;8.840;2023-07-30T07:33:15;74808.81;;;-145.72;100.00
15914;BME280;8055;51.930;8.840;2023-07-30T07:35:40;74827.44;;;-145.72;100.00
15914;BME280;8055;51.930;8.840;2023-07-30T07:38:06;74817.09;;;-145.72;100.00
15914;BME280;8055;51.930;8.840;2023-07-30T07:40:38;74815.03;;;-145.72;100.00
15914;BME280;8055;51.930;8.840;2023-07-30T07:43:09;74821.22;;;-145.72;100.00
15914;BME280;8055;51.930;8.840;2023-07-30T07:45:34;74825.38;;;-145.72;100.00
15914;BME280;8055;51.930;8.840;2023-07-30T07:48:00;74823.28;;;-145.72;100.00
15914;BME280;8055;51.930;8.840;2023-07-30T07:50:26;74827.44;;;-145.72;100.00
15914;BME280;8055;51.930;8.840;2023-07-30T07:52:51;74821.22;;;-145.72;100.00
15914;BME280;8055;51.930;8.840;2023-07-30T07:55:16;74819.16;;;-145.72;100.00
15914;BME280;8055;51.930;8.840;2023-07-30T07:57:42;74804.69;;;-145.72;100.00
15914;BME280;8055;51.930;8.840;2023-07-30T08:00:07;74804.69;;;-145.72;100.00
15914;BME280;8055;51.930;8.840;2023-07-30T08:02:34;74812.94;;;-145.72;100.00
15914;BME280;8055;51.930;8.840;2023-07-30T08:05:00;74825.38;;;-145.72;100.00
15914;BME280;8055;51.930;8.840;2023-07-30T08:07:25;74839.84;;;-145.72;100.00
15914;BME280;8055;51.930;8.840;2023-07-30T08:09:50;74835.72;;;-145.72;100.00
15914;BME280;8055;51.930;8.840;2023-07-30T08:12:17;74839.84;;;-145.72;100.00
15914;BME280;8055;51.930;8.840;2023-07-30T08:14:42;74839.84;;;-145.72;100.00
15914;BME280;8055;51.930;8.840;2023-07-30T08:17:08;74831.56;;;-145.72;100.00
15914;BME280;8055;51.930;8.840;2023-07-30T08:19:34;74833.63;;;-145.72;100.00
15914;BME280;8055;51.930;8.840;2023-07-30T08:21:59;74835.72;;;-145.72;100.00
15914;BME280;8055;51.930;8.840;2023-07-30T08:24:24;74850.19;;;-145.72;100.00
15914;BME280;8055;51.930;8.840;2023-07-30T08:26:50;74848.13;;;-145.72;100.00
15914;BME280;8055;51.930;8.840;2023-07-30T08:29:15;74848.13;;;-145.72;100.00
15914;BME280;8055;51.930;8.840;2023-07-30T08:31:41;74846.06;;;-145.72;100.00
15914;BME280;8055;51.930;8.840;2023-07-30T08:34:07;74854.31;;;-145.72;100.00
15914;BME280;8055;51.930;8.840;2023-07-30T08:36:32;74854.31;;;-145.72;100.00
15914;BME280;8055;51.930;8.840;2023-07-30T08:38:58;74852.25;;;-145.72;100.00
15914;BME280;8055;51.930;8.840;2023-07-30T08:41:23;74850.19;;;-145.72;100.00
15914;BME280;8055;51.930;8.840;2023-07-30T08:43:49;74854.31;;;-145.72;100.00
15914;BME280;8055;51.930;8.840;2023-07-30T08:46:17;74856.41;;;-145.72;100.00
15914;BME280;8055;51.930;8.840;2023-07-30T08:48:43;74854.31;;;-145.72;100.00
15914;BME280;8055;51.930;8.840;2023-07-30T08:51:10;74854.31;;;-145.72;100.00
15914;BME280;8055;51.930;8.840;2023-07-30T08:53:36;74856.41;;;-145.72;100.00
15914;BME280;8055;51.930;8.840;2023-07-30T08:56:02;74868.81;;;-145.72;100.00
15914;BME280;8055;51.930;8.840;2023-07-30T08:58:32;74862.59;;;-145.72;100.00
15914;BME280;8055;51.930;8.840;2023-07-30T09:00:59;74877.09;;;-145.72;100.00
15914;BME280;8055;51.930;8.840;2023-07-30T09:03:27;74877.09;;;-145.72;100.00
15914;BME280;8055;51.930;8.840;2023-07-30T09:05:54;74893.63;;;-145.72;100.00
15914;BME280;8055;51.930;8.840;2023-07-30T09:08:20;74885.34;;;-145.72;100.00
15914;BME280;8055;51.930;8.840;2023-07-30T09:10:45;74899.84;;;-145.72;100.00
15914;BME280;8055;51.930;8.840;2023-07-30T09:13:11;74897.78;;;-145.72;100.00
15914;BME280;8055;51.930;8.840;2023-07-30T09:15:38;74899.84;;;-145.72;100.00
15914;BME280;8055;51.930;8.840;2023-07-30T09:18:06;74899.84;;;-145.72;100.00
15914;BME280;8055;51.930;8.840;2023-07-30T09:20:41;74903.97;;;-145.72;100.00
15914;BME280;8055;51.930;8.840;2023-07-30T09:23:08;74906.03;;;-145.72;100.00
15914;BME280;8055;51.930;8.840;2023-07-30T09:25:35;74899.84;;;-145.72;100.00
15914;BME280;8055;51.930;8.840;2023-07-30T09:28:00;74906.03;;;-145.72;100.00
15914;BME280;8055;51.930;8.840;2023-07-30T09:30:26;74903.97;;;-145.72;100.00
15914;BME280;8055;51.930;8.840;2023-07-30T09:32:54;74903.97;;;-145.72;100.00
15914;BME280;8055;51.930;8.840;2023-07-30T09:35:20;74897.78;;;-145.72;100.00
15914;BME280;8055;51.930;8.840;2023-07-30T09:37:45;74893.63;;;-145.72;100.00
15914;BME280;8055;51.930;8.840;2023-07-30T09:40:13;74901.91;;;-145.72;100.00
15914;BME280;8055;51.930;8.840;2023-07-30T09:42:42;74889.50;;;-145.72;100.00
15914;BME280;8055;51.930;8.840;2023-07-30T09:45:16;74893.63;;;-145.72;100.00
15914;BME280;8055;51.930;8.840;2023-07-30T09:47:46;74881.22;;;-145.72;100.00
15914;BME280;8055;51.930;8.840;2023-07-30T09:50:11;74860.53;;;-145.72;100.00
15914;BME280;8055;51.930;8.840;2023-07-30T09:52:38;74846.06;;;-145.72;100.00
15914;BME280;8055;51.930;8.840;2023-07-30T09:55:06;74846.06;;;-145.72;100.00
15914;BME280;8055;51.930;8.840;2023-07-30T09:57:32;74843.97;;;-145.72;100.00
15914;BME280;8055;51.930;8.840;2023-07-30T09:59:58;74846.06;;;-145.72;100.00
15914;BME280;8055;51.930;8.840;2023-07-30T10:02:24;74846.06;;;-145.72;100.00
15914;BME280;8055;51.930;8.840;2023-07-30T10:04:50;74839.84;;;-145.72;100.00
15914;BME280;8055;51.930;8.840;2023-07-30T10:07:20;74810.88;;;-145.72;100.00
15914;BME280;8055;51.930;8.840;2023-07-30T10:09:47;74773.66;;;-145.72;100.00
15914;BME280;8055;51.930;8.840;2023-07-30T10:12:16;74761.22;;;-145.72;100.00
15914;BME280;8055;51.930;8.840;2023-07-30T10:14:43;74761.22;;;-145.72;100.00
15914;BME280;8055;51.930;8.840;2023-07-30T10:17:11;74750.88;;;-145.72;99.28
15914;BME280;8055;51.930;8.840;2023-07-30T10:19:36;74755.03;;;-145.72;98.46
15914;BME280;8055;51.930;8.840;2023-07-30T10:24:37;74767.44;;;-145.72;96.84
15914;BME280;8055;51.930;8.840;2023-07-30T10:27:09;74767.44;;;-145.72;98.05
15914;BME280;8055;51.930;8.840;2023-07-30T10:29:39;74767.44;;;-145.72;95.81
15914;BME280;8055;51.930;8.840;2023-07-30T10:32:06;74763.31;;;-145.72;93.92
15914;BME280;8055;51.930;8.840;2023-07-30T10:34:47;74761.22;;;-145.72;98.56
15914;BME280;8055;51.930;8.840;2023-07-30T10:37:20;74732.28;;;-145.72;99.69
15914;BME280;8055;51.930;8.840;2023-07-30T10:39:49;74719.88;;;-145.72;99.46
15914;BME280;8055;51.930;8.840;2023-07-30T10:42:14;74715.72;;;-145.72;90.56
15914;BME280;8055;51.930;8.840;2023-07-30T10:44:43;74707.44;;;-145.72;88.85
15914;BME280;8055;51.930;8.840;2023-07-30T10:47:09;74719.88;;;-145.72;90.83
15914;BME280;8055;51.930;8.840;2023-07-30T10:49:39;74713.66;;;-145.72;91.24
15914;BME280;8055;51.930;8.840;2023-07-30T10:52:06;74703.31;;;-145.72;91.38
15914;BME280;8055;51.930;8.840;2023-07-30T10:54:34;74649.53;;;-145.72;91.07
15914;BME280;8055;51.930;8.840;2023-07-30T10:56:59;74664.00;;;-145.72;86.82
15914;BME280;8055;51.930;8.840;2023-07-30T10:59:25;74674.34;;;-145.72;87.45
15914;BME280;8055;51.930;8.840;2023-07-30T11:01:52;74661.94;;;-145.72;90.34
15914;BME280;8055;51.930;8.840;2023-07-30T11:04:19;74670.22;;;-145.72;87.41
15914;BME280;8055;51.930;8.840;2023-07-30T11:06:47;74678.50;;;-145.72;90.72
15914;BME280;8055;51.930;8.840;2023-07-30T11:09:23;74653.66;;;-145.72;89.70
15914;BME280;8055;51.930;8.840;2023-07-30T11:11:50;74661.94;;;-145.72;88.98
15914;BME280;8055;51.930;8.840;2023-07-30T11:14:17;74616.44;;;-145.72;90.30
15914;BME280;8055;51.930;8.840;2023-07-30T11:16:56;74595.75;;;-145.72;88.97
15914;BME280;8055;51.930;8.840;2023-07-30T11:19:24;74608.16;;;-145.72;83.94
15914;BME280;8055;51.930;8.840;2023-07-30T11:21:51;74593.69;;;-145.72;83.08
15914;BME280;8055;51.930;8.840;2023-07-30T11:24:17;74570.91;;;-145.72;85.59
15914;BME280;8055;51.930;8.840;2023-07-30T11:26:43;74535.75;;;-145.72;87.81
15914;BME280;8055;51.930;8.840;2023-07-30T11:31:42;74544.03;;;-145.72;82.98
15914;BME280;8055;51.930;8.840;2023-07-30T11:34:08;74531.63;;;-145.72;79.37
15914;BME280;8055;51.930;8.840;2023-07-30T11:36:34;74510.94;;;-145.72;80.18
15914;BME280;8055;51.930;8.840;2023-07-30T11:39:00;74504.72;;;-145.72;77.39
15914;BME280;8055;51.930;8.840;2023-07-30T11:41:26;74502.66;;;-145.72;78.27
15914;BME280;8055;51.930;8.840;2023-07-30T11:43:54;74490.25;;;-145.72;78.42
15914;BME280;8055;51.930;8.840;2023-07-30T11:46:19;74490.25;;;-145.72;79.44
15914;BME280;8055;51.930;8.840;2023-07-30T11:48:49;74492.31;;;-145.72;76.10
15914;BME280;8055;51.930;8.840;2023-07-30T11:51:24;74481.97;;;-145.72;78.31
15914;BME280;8055;51.930;8.840;2023-07-30T11:53:59;74399.22;;;-145.72;77.48
15914;BME280;8055;51.930;8.840;2023-07-30T11:56:31;74345.44;;;-145.72;74.78
15914;BME280;8055;51.930;8.840;2023-07-30T11:59:01;74326.84;;;-145.72;71.57
15914;BME280;8055;51.930;8.840;2023-07-30T12:01:30;74368.19;;;-145.72;72.79
15914;BME280;8055;51.930;8.840;2023-07-30T12:03:57;74343.38;;;-145.72;71.11
15914;BME280;8055;51.930;8.840;2023-07-30T12:06:23;74374.41;;;-145.72;68.61
15914;BME280;8055;51.930;8.840;2023-07-30T12:08:49;74368.19;;;-145.72;68.71
15914;BME280;8055;51.930;8.840;2023-07-30T12:11:17;74378.53;;;-145.72;68.86
15914;BME280;8055;51.930;8.840;2023-07-30T12:13:44;74384.75;;;-145.72;64.66
15914;BME280;8055;51.930;8.840;2023-07-30T12:16:13;74424.06;;;-145.72;67.90
15914;BME280;8055;51.930;8.840;2023-07-30T12:18:39;74430.25;;;-145.72;67.09
15914;BME280;8055;51.930;8.840;2023-07-30T12:21:06;74359.94;;;-145.72;68.22
15914;BME280;8055;51.930;8.840;2023-07-30T12:23:37;74328.91;;;-145.72;65.76
15914;BME280;8055;51.930;8.840;2023-07-30T12:26:03;74349.59;;;-145.72;66.32
15914;BME280;8055;51.930;8.840;2023-07-30T12:28:32;74388.88;;;-145.72;64.18
15914;BME280;8055;51.930;8.840;2023-07-30T12:30:59;74413.72;;;-145.72;66.09
15914;BME280;8055;51.930;8.840;2023-07-30T12:33:24;74434.41;;;-145.72;67.07
15914;BME280;8055;51.930;8.840;2023-07-30T12:35:50;74463.34;;;-145.72;64.37
15914;BME280;8055;51.930;8.840;2023-07-30T12:38:15;74486.09;;;-145.72;64.87
15914;BME280;8055;51.930;8.840;2023-07-30T12:40:41;74510.94;;;-145.72;67.50
15914;BME280;8055;51.930;8.840;2023-07-30T12:43:06;74517.13;;;-145.72;70.58
15914;BME280;8055;51.930;8.840;2023-07-30T12:45:31;74519.19;;;-145.72;67.91